sensor_id;sensor_type;location;lat;lon;timestamp;P1;durP1;ratioP1;P2;durP2;ratioP2
24485;SDS011;13449;49.374;8.584;2022-11-18T00:03:37;3.08;;;1.35;;
24485;SDS011;13449;49.374;8.584;2022-11-18T00:06:05;2.97;;;1.00;;
24485;SDS011;13449;49.374;8.584;2022-11-18T00:08:33;3.50;;;1.02;;
24485;SDS011;13449;49.374;8.584;2022-11-18T00:11:04;2.35;;;1.23;;
24485;SDS011;13449;49.374;8.584;2022-11-18T00:13:38;2.53;;;1.05;;
24485;SDS011;13449;49.374;8.584;2022-11-18T00:16:26;2.45;;;1.08;;
24485;SDS011;13449;49.374;8.584;2022-11-18T00:18:52;1.15;;;0.70;;
24485;SDS011;13449;49.374;8.584;2022-11-18T00:21:18;11.57;;;1.08;;
24485;SDS011;13449;49.374;8.584;2022-11-18T00:23:47;3.47;;;0.90;;
24485;SDS011;13449;49.374;8.584;2022-11-18T00:26:14;1.08;;;0.70;;
24485;SDS011;13449;49.374;8.584;2022-11-18T00:28:40;12.35;;;1.23;;
24485;SDS011;13449;49.374;8.584;2022-11-18T00:31:08;5.38;;;1.08;;
24485;SDS011;13449;49.374;8.584;2022-11-18T00:33:36;8.05;;;2.00;;
24485;SDS011;13449;49.374;8.584;2022-11-18T00:36:04;8.07;;;2.10;;
24485;SDS011;13449;49.374;8.584;2022-11-18T00:38:37;2.45;;;1.55;;
24485;SDS011;13449;49.374;8.584;2022-11-18T00:41:08;3.05;;;1.85;;
24485;SDS011;13449;49.374;8.584;2022-11-18T00:43:37;7.95;;;1.75;;
24485;SDS011;13449;49.374;8.584;2022-11-18T00:46:05;5.22;;;2.00;;
24485;SDS011;13449;49.374;8.584;2022-11-18T00:48:33;7.18;;;1.42;;
24485;SDS011;13449;49.374;8.584;2022-11-18T00:51:16;2.17;;;1.33;;
24485;SDS011;13449;49.374;8.584;2022-11-18T00:53:43;5.05;;;1.80;;
24485;SDS011;13449;49.374;8.584;2022-11-18T00:56:10;2.25;;;1.50;;
24485;SDS011;13449;49.374;8.584;2022-11-18T00:58:37;3.25;;;1.70;;
24485;SDS011;13449;49.374;8.584;2022-11-18T01:01:06;3.50;;;1.98;;
24485;SDS011;13449;49.374;8.584;2022-11-18T01:03:33;2.55;;;1.77;;
24485;SDS011;13449;49.374;8.584;2022-11-18T01:06:02;8.07;;;1.85;;
24485;SDS011;13449;49.374;8.584;2022-11-18T01:08:30;2.80;;;1.48;;
24485;SDS011;13449;49.374;8.584;2022-11-18T01:10:57;6.72;;;2.70;;
24485;SDS011;13449;49.374;8.584;2022-11-18T01:13:43;5.93;;;2.67;;
24485;SDS011;13449;49.374;8.584;2022-11-18T01:16:10;5.88;;;2.90;;
24485;SDS011;13449;49.374;8.584;2022-11-18T01:18:36;6.40;;;3.10;;
24485;SDS011;13449;49.374;8.584;2022-11-18T01:21:03;9.32;;;2.92;;
24485;SDS011;13449;49.374;8.584;2022-11-18T01:26:15;11.52;;;2.80;;
24485;SDS011;13449;49.374;8.584;2022-11-18T01:28:45;10.70;;;3.60;;
24485;SDS011;13449;49.374;8.584;2022-11-18T01:31:13;6.57;;;3.40;;
24485;SDS011;13449;49.374;8.584;2022-11-18T01:33:44;8.98;;;2.85;;
24485;SDS011;13449;49.374;8.584;2022-11-18T01:36:15;7.82;;;2.83;;
24485;SDS011;13449;49.374;8.584;2022-11-18T01:38:47;8.10;;;2.55;;
24485;SDS011;13449;49.374;8.584;2022-11-18T01:41:16;6.45;;;3.22;;
24485;SDS011;13449;49.374;8.584;2022-11-18T01:43:59;7.00;;;2.38;;
24485;SDS011;13449;49.374;8.584;2022-11-18T01:46:31;9.75;;;2.70;;
24485;SDS011;13449;49.374;8.584;2022-11-18T01:49:03;9.48;;;2.88;;
24485;SDS011;13449;49.374;8.584;2022-11-18T01:51:33;5.68;;;2.63;;
24485;SDS011;13449;49.374;8.584;2022-11-18T01:54:11;12.35;;;2.75;;
24485;SDS011;13449;49.374;8.584;2022-11-18T01:56:46;3.42;;;2.05;;
24485;SDS011;13449;49.374;8.584;2022-11-18T01:59:18;5.15;;;2.42;;
24485;SDS011;13449;49.374;8.584;2022-11-18T02:01:56;2.75;;;2.28;;
24485;SDS011;13449;49.374;8.584;2022-11-18T02:04:26;6.53;;;2.42;;
24485;SDS011;13449;49.374;8.584;2022-11-18T02:06:52;2.65;;;2.42;;
24485;SDS011;13449;49.374;8.584;2022-11-18T02:09:20;6.88;;;2.05;;
24485;SDS011;13449;49.374;8.584;2022-11-18T02:11:47;5.25;;;2.50;;
24485;SDS011;13449;49.374;8.584;2022-11-18T02:14:18;8.07;;;2.40;;
24485;SDS011;13449;49.374;8.584;2022-11-18T02:25:30;3.25;;;2.05;;
24485;SDS011;13449;49.374;8.584;2022-11-18T02:28:21;5.32;;;1.83;;
24485;SDS011;13449;49.374;8.584;2022-11-18T02:31:01;3.13;;;1.83;;
24485;SDS011;13449;49.374;8.584;2022-11-18T02:33:35;2.72;;;1.90;;
24485;SDS011;13449;49.374;8.584;2022-11-18T02:36:12;6.32;;;2.20;;
24485;SDS011;13449;49.374;8.584;2022-11-18T02:39:01;5.18;;;1.63;;
24485;SDS011;13449;49.374;8.584;2022-11-18T02:41:33;6.25;;;1.55;;
24485;SDS011;13449;49.374;8.584;2022-11-18T02:44:06;2.65;;;1.52;;
24485;SDS011;13449;49.374;8.584;2022-11-18T02:46:38;9.70;;;1.73;;
24485;SDS011;13449;49.374;8.584;2022-11-18T02:49:08;6.60;;;1.60;;
24485;SDS011;13449;49.374;8.584;2022-11-18T02:51:39;2.03;;;1.45;;
24485;SDS011;13449;49.374;8.584;2022-11-18T02:54:10;5.47;;;1.70;;
24485;SDS011;13449;49.374;8.584;2022-11-18T02:56:40;9.50;;;1.70;;
24485;SDS011;13449;49.374;8.584;2022-11-18T02:59:08;2.17;;;1.58;;
24485;SDS011;13449;49.374;8.584;2022-11-18T03:01:35;6.07;;;1.80;;
24485;SDS011;13449;49.374;8.584;2022-11-18T03:04:02;2.33;;;1.42;;
24485;SDS011;13449;49.374;8.584;2022-11-18T03:06:46;4.13;;;1.83;;
24485;SDS011;13449;49.374;8.584;2022-11-18T03:09:26;4.53;;;2.17;;
24485;SDS011;13449;49.374;8.584;2022-11-18T03:14:58;10.02;;;1.98;;
24485;SDS011;13449;49.374;8.584;2022-11-18T03:20:27;6.28;;;1.75;;
24485;SDS011;13449;49.374;8.584;2022-11-18T03:25:50;7.10;;;1.60;;
24485;SDS011;13449;49.374;8.584;2022-11-18T03:31:15;5.50;;;1.67;;
24485;SDS011;13449;49.374;8.584;2022-11-18T03:33:55;3.88;;;1.63;;
24485;SDS011;13449;49.374;8.584;2022-11-18T03:36:28;6.50;;;1.83;;
24485;SDS011;13449;49.374;8.584;2022-11-18T03:38:59;3.38;;;1.80;;
24485;SDS011;13449;49.374;8.584;2022-11-18T03:41:31;10.48;;;2.55;;
24485;SDS011;13449;49.374;8.584;2022-11-18T03:44:08;6.55;;;2.20;;
24485;SDS011;13449;49.374;8.584;2022-11-18T03:46:39;6.80;;;2.25;;
24485;SDS011;13449;49.374;8.584;2022-11-18T03:49:11;4.83;;;1.80;;
24485;SDS011;13449;49.374;8.584;2022-11-18T03:54:30;3.05;;;1.90;;
24485;SDS011;13449;49.374;8.584;2022-11-18T03:57:02;7.57;;;1.55;;
24485;SDS011;13449;49.374;8.584;2022-11-18T04:00:23;2.22;;;1.65;;
24485;SDS011;13449;49.374;8.584;2022-11-18T04:02:34;8.05;;;2.30;;
24485;SDS011;13449;49.374;8.584;2022-11-18T04:05:04;6.35;;;1.95;;
24485;SDS011;13449;49.374;8.584;2022-11-18T04:10:24;3.78;;;1.55;;
24485;SDS011;13449;49.374;8.584;2022-11-18T04:15:36;2.92;;;1.30;;
24485;SDS011;13449;49.374;8.584;2022-11-18T04:18:05;4.75;;;1.00;;
24485;SDS011;13449;49.374;8.584;2022-11-18T04:20:31;2.63;;;1.15;;
24485;SDS011;13449;49.374;8.584;2022-11-18T04:23:03;5.93;;;1.42;;
24485;SDS011;13449;49.374;8.584;2022-11-18T04:25:30;4.88;;;1.17;;
24485;SDS011;13449;49.374;8.584;2022-11-18T04:27:59;3.53;;;1.00;;
24485;SDS011;13449;49.374;8.584;2022-11-18T04:30:26;6.35;;;0.77;;
24485;SDS011;13449;49.374;8.584;2022-11-18T04:32:55;3.13;;;0.75;;
24485;SDS011;13449;49.374;8.584;2022-11-18T04:35:22;0.70;;;0.65;;
24485;SDS011;13449;49.374;8.584;2022-11-18T04:37:48;1.73;;;0.63;;
24485;SDS011;13449;49.374;8.584;2022-11-18T04:40:18;4.30;;;0.50;;
24485;SDS011;13449;49.374;8.584;2022-11-18T04:42:44;1.77;;;0.50;;
24485;SDS011;13449;49.374;8.584;2022-11-18T04:45:13;5.28;;;0.40;;
24485;SDS011;13449;49.374;8.584;2022-11-18T04:47:39;2.15;;;0.50;;
24485;SDS011;13449;49.374;8.584;2022-11-18T04:50:05;0.85;;;0.40;;
24485;SDS011;13449;49.374;8.584;2022-11-18T04:52:32;0.38;;;0.30;;
24485;SDS011;13449;49.374;8.584;2022-11-18T04:54:59;1.08;;;0.63;;
24485;SDS011;13449;49.374;8.584;2022-11-18T04:57:25;0.70;;;0.13;;
24485;SDS011;13449;49.374;8.584;2022-11-18T04:59:51;0.43;;;0.13;;
24485;SDS011;13449;49.374;8.584;2022-11-18T05:02:20;2.58;;;0.40;;
24485;SDS011;13449;49.374;8.584;2022-11-18T05:04:47;2.58;;;0.22;;
24485;SDS011;13449;49.374;8.584;2022-11-18T05:07:14;8.02;;;0.30;;
24485;SDS011;13449;49.374;8.584;2022-11-18T05:09:41;0.40;;;0.40;;
24485;SDS011;13449;49.374;8.584;2022-11-18T05:12:12;1.13;;;0.40;;
24485;SDS011;13449;49.374;8.584;2022-11-18T05:14:58;3.60;;;0.20;;
24485;SDS011;13449;49.374;8.584;2022-11-18T05:17:25;9.38;;;0.30;;
24485;SDS011;13449;49.374;8.584;2022-11-18T05:19:51;1.50;;;0.40;;
24485;SDS011;13449;49.374;8.584;2022-11-18T05:22:20;4.65;;;0.52;;
24485;SDS011;13449;49.374;8.584;2022-11-18T05:24:46;3.08;;;0.35;;
24485;SDS011;13449;49.374;8.584;2022-11-18T05:27:13;0.55;;;0.38;;
24485;SDS011;13449;49.374;8.584;2022-11-18T05:29:40;1.13;;;0.50;;
24485;SDS011;13449;49.374;8.584;2022-11-18T05:32:07;0.65;;;0.28;;
24485;SDS011;13449;49.374;8.584;2022-11-18T05:34:35;1.23;;;0.50;;
24485;SDS011;13449;49.374;8.584;2022-11-18T05:37:01;0.85;;;0.30;;
24485;SDS011;13449;49.374;8.584;2022-11-18T05:39:28;0.55;;;0.55;;
24485;SDS011;13449;49.374;8.584;2022-11-18T05:41:54;3.35;;;0.50;;
24485;SDS011;13449;49.374;8.584;2022-11-18T05:44:39;0.30;;;0.30;;
24485;SDS011;13449;49.374;8.584;2022-11-18T05:47:05;6.68;;;0.52;;
24485;SDS011;13449;49.374;8.584;2022-11-18T05:49:32;1.20;;;0.40;;
24485;SDS011;13449;49.374;8.584;2022-11-18T05:52:01;3.88;;;0.80;;
24485;SDS011;13449;49.374;8.584;2022-11-18T05:54:27;3.45;;;0.40;;
24485;SDS011;13449;49.374;8.584;2022-11-18T05:56:56;1.35;;;0.47;;
24485;SDS011;13449;49.374;8.584;2022-11-18T05:59:23;0.95;;;0.43;;
24485;SDS011;13449;49.374;8.584;2022-11-18T06:04:45;0.88;;;0.35;;
24485;SDS011;13449;49.374;8.584;2022-11-18T06:07:16;1.00;;;0.52;;
24485;SDS011;13449;49.374;8.584;2022-11-18T06:09:47;1.48;;;0.60;;
24485;SDS011;13449;49.374;8.584;2022-11-18T06:12:19;0.80;;;0.70;;
24485;SDS011;13449;49.374;8.584;2022-11-18T06:14:50;1.10;;;0.50;;
24485;SDS011;13449;49.374;8.584;2022-11-18T06:17:23;2.63;;;0.40;;
24485;SDS011;13449;49.374;8.584;2022-11-18T06:19:58;0.70;;;0.43;;
24485;SDS011;13449;49.374;8.584;2022-11-18T06:22:27;0.35;;;0.35;;
24485;SDS011;13449;49.374;8.584;2022-11-18T06:24:54;14.02;;;0.70;;
24485;SDS011;13449;49.374;8.584;2022-11-18T06:27:20;7.72;;;0.80;;
24485;SDS011;13449;49.374;8.584;2022-11-18T06:29:47;2.53;;;1.70;;
24485;SDS011;13449;49.374;8.584;2022-11-18T06:32:13;6.70;;;1.17;;
24485;SDS011;13449;49.374;8.584;2022-11-18T06:34:40;4.00;;;1.02;;
24485;SDS011;13449;49.374;8.584;2022-11-18T06:37:13;4.85;;;0.95;;
24485;SDS011;13449;49.374;8.584;2022-11-18T06:39:41;1.45;;;0.60;;
24485;SDS011;13449;49.374;8.584;2022-11-18T06:42:08;1.55;;;0.82;;
24485;SDS011;13449;49.374;8.584;2022-11-18T06:44:35;3.45;;;1.25;;
24485;SDS011;13449;49.374;8.584;2022-11-18T06:47:02;1.92;;;1.48;;
24485;SDS011;13449;49.374;8.584;2022-11-18T06:49:29;1.20;;;1.10;;
24485;SDS011;13449;49.374;8.584;2022-11-18T06:51:55;4.55;;;1.33;;
24485;SDS011;13449;49.374;8.584;2022-11-18T06:54:22;1.00;;;0.90;;
24485;SDS011;13449;49.374;8.584;2022-11-18T06:56:48;1.73;;;0.65;;
24485;SDS011;13449;49.374;8.584;2022-11-18T06:59:15;0.73;;;0.50;;
24485;SDS011;13449;49.374;8.584;2022-11-18T07:01:47;2.55;;;0.90;;
24485;SDS011;13449;49.374;8.584;2022-11-18T07:04:13;0.60;;;0.50;;
24485;SDS011;13449;49.374;8.584;2022-11-18T07:06:40;3.90;;;0.40;;
24485;SDS011;13449;49.374;8.584;2022-11-18T07:09:08;2.33;;;0.50;;
24485;SDS011;13449;49.374;8.584;2022-11-18T07:11:35;3.22;;;0.60;;
24485;SDS011;13449;49.374;8.584;2022-11-18T07:14:03;1.10;;;0.68;;
24485;SDS011;13449;49.374;8.584;2022-11-18T07:16:32;3.55;;;0.60;;
24485;SDS011;13449;49.374;8.584;2022-11-18T07:18:59;0.70;;;0.57;;
24485;SDS011;13449;49.374;8.584;2022-11-18T07:21:26;3.70;;;0.75;;
24485;SDS011;13449;49.374;8.584;2022-11-18T07:23:54;0.60;;;0.30;;
24485;SDS011;13449;49.374;8.584;2022-11-18T07:26:21;0.60;;;0.40;;
24485;SDS011;13449;49.374;8.584;2022-11-18T07:28:50;0.80;;;0.60;;
24485;SDS011;13449;49.374;8.584;2022-11-18T07:31:21;6.28;;;0.90;;
24485;SDS011;13449;49.374;8.584;2022-11-18T07:33:48;4.25;;;1.35;;
24485;SDS011;13449;49.374;8.584;2022-11-18T07:36:17;0.80;;;0.70;;
24485;SDS011;13449;49.374;8.584;2022-11-18T07:38:46;8.85;;;0.52;;
24485;SDS011;13449;49.374;8.584;2022-11-18T07:41:17;0.75;;;0.40;;
24485;SDS011;13449;49.374;8.584;2022-11-18T07:43:47;2.65;;;0.60;;
24485;SDS011;13449;49.374;8.584;2022-11-18T07:48:48;2.80;;;2.00;;
24485;SDS011;13449;49.374;8.584;2022-11-18T07:51:17;3.80;;;2.95;;
24485;SDS011;13449;49.374;8.584;2022-11-18T07:53:47;8.65;;;2.20;;
24485;SDS011;13449;49.374;8.584;2022-11-18T07:56:13;5.97;;;3.20;;
24485;SDS011;13449;49.374;8.584;2022-11-18T07:58:41;4.03;;;2.95;;
24485;SDS011;13449;49.374;8.584;2022-11-18T08:01:18;6.00;;;1.58;;
24485;SDS011;13449;49.374;8.584;2022-11-18T08:03:46;2.58;;;1.88;;
24485;SDS011;13449;49.374;8.584;2022-11-18T08:06:14;4.63;;;1.73;;
24485;SDS011;13449;49.374;8.584;2022-11-18T08:08:45;4.88;;;1.75;;
24485;SDS011;13449;49.374;8.584;2022-11-18T08:11:13;3.47;;;1.25;;
24485;SDS011;13449;49.374;8.584;2022-11-18T08:13:47;1.13;;;0.90;;
24485;SDS011;13449;49.374;8.584;2022-11-18T08:16:15;2.88;;;1.13;;
24485;SDS011;13449;49.374;8.584;2022-11-18T08:18:44;1.10;;;0.80;;
24485;SDS011;13449;49.374;8.584;2022-11-18T08:21:11;2.33;;;0.63;;
24485;SDS011;13449;49.374;8.584;2022-11-18T08:23:41;1.58;;;1.45;;
24485;SDS011;13449;49.374;8.584;2022-11-18T08:28:36;2.75;;;1.30;;
24485;SDS011;13449;49.374;8.584;2022-11-18T08:31:13;2.22;;;1.50;;
24485;SDS011;13449;49.374;8.584;2022-11-18T08:33:45;3.47;;;1.63;;
24485;SDS011;13449;49.374;8.584;2022-11-18T08:36:16;1.50;;;1.27;;
24485;SDS011;13449;49.374;8.584;2022-11-18T08:38:47;4.90;;;1.73;;
24485;SDS011;13449;49.374;8.584;2022-11-18T08:41:14;1.30;;;1.15;;
24485;SDS011;13449;49.374;8.584;2022-11-18T08:43:43;3.95;;;1.77;;
24485;SDS011;13449;49.374;8.584;2022-11-18T08:46:12;3.08;;;1.58;;
24485;SDS011;13449;49.374;8.584;2022-11-18T08:48:41;2.65;;;1.98;;
24485;SDS011;13449;49.374;8.584;2022-11-18T08:51:09;2.65;;;1.52;;
24485;SDS011;13449;49.374;8.584;2022-11-18T08:53:41;4.53;;;2.38;;
24485;SDS011;13449;49.374;8.584;2022-11-18T08:56:15;3.90;;;1.25;;
24485;SDS011;13449;49.374;8.584;2022-11-18T08:58:43;1.85;;;1.23;;
24485;SDS011;13449;49.374;8.584;2022-11-18T09:01:13;4.22;;;2.55;;
24485;SDS011;13449;49.374;8.584;2022-11-18T09:03:42;4.47;;;2.25;;
24485;SDS011;13449;49.374;8.584;2022-11-18T09:08:39;3.75;;;2.45;;
24485;SDS011;13449;49.374;8.584;2022-11-18T09:11:06;2.28;;;1.85;;
24485;SDS011;13449;49.374;8.584;2022-11-18T09:13:36;5.07;;;2.95;;
24485;SDS011;13449;49.374;8.584;2022-11-18T09:16:23;2.13;;;1.75;;
24485;SDS011;13449;49.374;8.584;2022-11-18T09:18:56;3.65;;;2.30;;
24485;SDS011;13449;49.374;8.584;2022-11-18T09:21:38;6.78;;;1.95;;
24485;SDS011;13449;49.374;8.584;2022-11-18T09:24:06;2.53;;;1.95;;
24485;SDS011;13449;49.374;8.584;2022-11-18T09:26:36;2.95;;;1.67;;
24485;SDS011;13449;49.374;8.584;2022-11-18T09:29:03;4.20;;;2.25;;
24485;SDS011;13449;49.374;8.584;2022-11-18T09:31:31;16.52;;;4.35;;
24485;SDS011;13449;49.374;8.584;2022-11-18T09:33:58;3.97;;;3.20;;
24485;SDS011;13449;49.374;8.584;2022-11-18T09:36:25;2.00;;;1.88;;
24485;SDS011;13449;49.374;8.584;2022-11-18T09:38:55;4.43;;;2.97;;
24485;SDS011;13449;49.374;8.584;2022-11-18T09:41:44;5.45;;;2.45;;
24485;SDS011;13449;49.374;8.584;2022-11-18T09:44:40;11.65;;;6.75;;
24485;SDS011;13449;49.374;8.584;2022-11-18T09:47:28;5.18;;;2.53;;
24485;SDS011;13449;49.374;8.584;2022-11-18T09:50:03;3.08;;;2.20;;
24485;SDS011;13449;49.374;8.584;2022-11-18T09:55:36;3.05;;;2.00;;
24485;SDS011;13449;49.374;8.584;2022-11-18T09:58:04;3.10;;;1.67;;
24485;SDS011;13449;49.374;8.584;2022-11-18T10:00:32;4.20;;;1.75;;
24485;SDS011;13449;49.374;8.584;2022-11-18T10:03:00;4.70;;;2.33;;
24485;SDS011;13449;49.374;8.584;2022-11-18T10:05:52;2.38;;;2.08;;
24485;SDS011;13449;49.374;8.584;2022-11-18T10:08:41;6.07;;;1.67;;
24485;SDS011;13449;49.374;8.584;2022-11-18T10:22:21;3.92;;;1.45;;
24485;SDS011;13449;49.374;8.584;2022-11-18T10:24:51;7.40;;;1.27;;
24485;SDS011;13449;49.374;8.584;2022-11-18T10:27:19;3.22;;;1.33;;
24485;SDS011;13449;49.374;8.584;2022-11-18T10:29:54;3.38;;;1.50;;
24485;SDS011;13449;49.374;8.584;2022-11-18T10:32:23;1.40;;;1.30;;
24485;SDS011;13449;49.374;8.584;2022-11-18T10:34:53;3.30;;;1.23;;
24485;SDS011;13449;49.374;8.584;2022-11-18T10:37:26;3.58;;;1.13;;
24485;SDS011;13449;49.374;8.584;2022-11-18T10:40:27;3.53;;;1.77;;
24485;SDS011;13449;49.374;8.584;2022-11-18T10:42:55;3.00;;;1.52;;
24485;SDS011;13449;49.374;8.584;2022-11-18T10:47:58;1.75;;;1.25;;
24485;SDS011;13449;49.374;8.584;2022-11-18T10:50:41;2.38;;;0.98;;
24485;SDS011;13449;49.374;8.584;2022-11-18T10:53:31;2.53;;;1.58;;
24485;SDS011;13449;49.374;8.584;2022-11-18T10:55:58;3.45;;;1.65;;
24485;SDS011;13449;49.374;8.584;2022-11-18T10:58:27;5.32;;;1.67;;
24485;SDS011;13449;49.374;8.584;2022-11-18T11:03:40;7.70;;;3.05;;
24485;SDS011;13449;49.374;8.584;2022-11-18T11:06:21;6.07;;;2.58;;
24485;SDS011;13449;49.374;8.584;2022-11-18T11:08:59;3.67;;;2.00;;
24485;SDS011;13449;49.374;8.584;2022-11-18T11:11:29;4.15;;;2.10;;
24485;SDS011;13449;49.374;8.584;2022-11-18T11:16:32;17.88;;;4.80;;
24485;SDS011;13449;49.374;8.584;2022-11-18T11:19:03;2.55;;;1.45;;
24485;SDS011;13449;49.374;8.584;2022-11-18T11:21:35;1.65;;;1.52;;
24485;SDS011;13449;49.374;8.584;2022-11-18T11:24:04;2.97;;;1.23;;
24485;SDS011;13449;49.374;8.584;2022-11-18T11:35:29;3.80;;;1.63;;
24485;SDS011;13449;49.374;8.584;2022-11-18T11:38:11;4.57;;;1.15;;
24485;SDS011;13449;49.374;8.584;2022-11-18T11:40:55;1.30;;;1.15;;
24485;SDS011;13449;49.374;8.584;2022-11-18T11:46:22;1.35;;;1.10;;
24485;SDS011;13449;49.374;8.584;2022-11-18T11:49:17;3.65;;;1.30;;
24485;SDS011;13449;49.374;8.584;2022-11-18T11:57:04;2.38;;;1.15;;
24485;SDS011;13449;49.374;8.584;2022-11-18T12:02:39;2.80;;;1.30;;
24485;SDS011;13449;49.374;8.584;2022-11-18T12:08:02;7.63;;;1.25;;
24485;SDS011;13449;49.374;8.584;2022-11-18T12:13:55;1.95;;;1.17;;
24485;SDS011;13449;49.374;8.584;2022-11-18T12:16:17;0.88;;;0.75;;
24485;SDS011;13449;49.374;8.584;2022-11-18T12:26:46;1.88;;;1.50;;
24485;SDS011;13449;49.374;8.584;2022-11-18T12:32:13;1.85;;;1.55;;
24485;SDS011;13449;49.374;8.584;2022-11-18T12:34:54;6.85;;;2.40;;
24485;SDS011;13449;49.374;8.584;2022-11-18T12:42:32;5.95;;;1.58;;
24485;SDS011;13449;49.374;8.584;2022-11-18T12:50:56;3.45;;;1.00;;
24485;SDS011;13449;49.374;8.584;2022-11-18T13:01:19;3.20;;;1.20;;
24485;SDS011;13449;49.374;8.584;2022-11-18T13:03:51;1.35;;;0.95;;
24485;SDS011;13449;49.374;8.584;2022-11-18T13:06:28;1.67;;;0.85;;
24485;SDS011;13449;49.374;8.584;2022-11-18T13:08:57;3.00;;;1.10;;
24485;SDS011;13449;49.374;8.584;2022-11-18T13:11:26;3.15;;;0.60;;
24485;SDS011;13449;49.374;8.584;2022-11-18T13:14:43;2.58;;;0.63;;
24485;SDS011;13449;49.374;8.584;2022-11-18T13:20:29;4.45;;;1.08;;
24485;SDS011;13449;49.374;8.584;2022-11-18T13:22:59;2.80;;;1.73;;
24485;SDS011;13449;49.374;8.584;2022-11-18T13:26:02;5.15;;;2.22;;
24485;SDS011;13449;49.374;8.584;2022-11-18T13:28:39;2.38;;;1.23;;
24485;SDS011;13449;49.374;8.584;2022-11-18T13:34:07;2.40;;;0.90;;
24485;SDS011;13449;49.374;8.584;2022-11-18T13:36:41;1.63;;;0.80;;
24485;SDS011;13449;49.374;8.584;2022-11-18T13:39:20;1.17;;;0.98;;
24485;SDS011;13449;49.374;8.584;2022-11-18T13:42:05;3.28;;;1.20;;
24485;SDS011;13449;49.374;8.584;2022-11-18T13:44:42;5.13;;;1.10;;
24485;SDS011;13449;49.374;8.584;2022-11-18T13:55:27;1.85;;;1.20;;
24485;SDS011;13449;49.374;8.584;2022-11-18T14:00:34;7.82;;;1.80;;
24485;SDS011;13449;49.374;8.584;2022-11-18T14:03:02;4.90;;;1.35;;
24485;SDS011;13449;49.374;8.584;2022-11-18T14:05:54;4.95;;;1.40;;
24485;SDS011;13449;49.374;8.584;2022-11-18T14:08:32;3.30;;;1.50;;
24485;SDS011;13449;49.374;8.584;2022-11-18T14:11:06;8.43;;;0.97;;
24485;SDS011;13449;49.374;8.584;2022-11-18T14:13:36;2.97;;;1.20;;
24485;SDS011;13449;49.374;8.584;2022-11-18T14:18:47;4.97;;;1.40;;
24485;SDS011;13449;49.374;8.584;2022-11-18T14:21:26;1.17;;;0.65;;
24485;SDS011;13449;49.374;8.584;2022-11-18T14:23:54;2.08;;;1.08;;
24485;SDS011;13449;49.374;8.584;2022-11-18T14:26:31;8.93;;;1.33;;
24485;SDS011;13449;49.374;8.584;2022-11-18T14:29:16;3.25;;;1.50;;
24485;SDS011;13449;49.374;8.584;2022-11-18T14:34:32;1.83;;;1.10;;
24485;SDS011;13449;49.374;8.584;2022-11-18T14:37:01;10.27;;;1.08;;
24485;SDS011;13449;49.374;8.584;2022-11-18T14:39:36;4.93;;;0.88;;
24485;SDS011;13449;49.374;8.584;2022-11-18T14:42:03;3.17;;;1.15;;
24485;SDS011;13449;49.374;8.584;2022-11-18T14:44:31;5.10;;;1.63;;
24485;SDS011;13449;49.374;8.584;2022-11-18T14:46:59;5.03;;;1.25;;
24485;SDS011;13449;49.374;8.584;2022-11-18T14:49:28;6.85;;;1.30;;
24485;SDS011;13449;49.374;8.584;2022-11-18T14:51:58;3.03;;;1.73;;
24485;SDS011;13449;49.374;8.584;2022-11-18T14:54:28;5.53;;;1.45;;
24485;SDS011;13449;49.374;8.584;2022-11-18T14:56:58;2.88;;;1.10;;
24485;SDS011;13449;49.374;8.584;2022-11-18T14:59:28;5.05;;;1.05;;
24485;SDS011;13449;49.374;8.584;2022-11-18T15:01:54;1.23;;;0.63;;
24485;SDS011;13449;49.374;8.584;2022-11-18T15:04:24;8.98;;;1.00;;
24485;SDS011;13449;49.374;8.584;2022-11-18T15:06:51;3.95;;;1.33;;
24485;SDS011;13449;49.374;8.584;2022-11-18T15:09:17;4.10;;;1.10;;
24485;SDS011;13449;49.374;8.584;2022-11-18T15:11:44;2.25;;;0.70;;
24485;SDS011;13449;49.374;8.584;2022-11-18T15:14:10;7.68;;;0.98;;
24485;SDS011;13449;49.374;8.584;2022-11-18T15:16:39;3.50;;;0.88;;
24485;SDS011;13449;49.374;8.584;2022-11-18T15:19:08;10.30;;;1.20;;
24485;SDS011;13449;49.374;8.584;2022-11-18T15:21:40;8.52;;;1.02;;
24485;SDS011;13449;49.374;8.584;2022-11-18T15:24:06;6.97;;;1.17;;
24485;SDS011;13449;49.374;8.584;2022-11-18T15:26:34;9.32;;;1.77;;
24485;SDS011;13449;49.374;8.584;2022-11-18T15:29:03;6.88;;;1.33;;
24485;SDS011;13449;49.374;8.584;2022-11-18T15:31:30;3.15;;;1.20;;
24485;SDS011;13449;49.374;8.584;2022-11-18T15:33:57;7.65;;;2.33;;
24485;SDS011;13449;49.374;8.584;2022-11-18T15:36:31;2.25;;;1.10;;
24485;SDS011;13449;49.374;8.584;2022-11-18T15:38:58;9.10;;;2.00;;
24485;SDS011;13449;49.374;8.584;2022-11-18T15:41:25;5.90;;;1.58;;
24485;SDS011;13449;49.374;8.584;2022-11-18T15:43:54;3.58;;;1.95;;
24485;SDS011;13449;49.374;8.584;2022-11-18T15:46:22;2.55;;;1.80;;
24485;SDS011;13449;49.374;8.584;2022-11-18T15:48:50;2.10;;;1.75;;
24485;SDS011;13449;49.374;8.584;2022-11-18T15:51:20;2.08;;;1.17;;
24485;SDS011;13449;49.374;8.584;2022-11-18T15:53:47;5.22;;;1.98;;
24485;SDS011;13449;49.374;8.584;2022-11-18T15:56:14;3.72;;;2.00;;
24485;SDS011;13449;49.374;8.584;2022-11-18T15:58:41;7.28;;;1.98;;
24485;SDS011;13449;49.374;8.584;2022-11-18T16:01:08;2.03;;;1.48;;
24485;SDS011;13449;49.374;8.584;2022-11-18T16:03:35;2.30;;;1.17;;
24485;SDS011;13449;49.374;8.584;2022-11-18T16:06:01;3.88;;;1.35;;
24485;SDS011;13449;49.374;8.584;2022-11-18T16:08:31;16.85;;;1.92;;
24485;SDS011;13449;49.374;8.584;2022-11-18T16:10:57;3.53;;;1.48;;
24485;SDS011;13449;49.374;8.584;2022-11-18T16:13:43;7.82;;;2.38;;
24485;SDS011;13449;49.374;8.584;2022-11-18T16:16:18;5.03;;;2.72;;
24485;SDS011;13449;49.374;8.584;2022-11-18T16:18:48;12.05;;;4.75;;
24485;SDS011;13449;49.374;8.584;2022-11-18T16:21:14;13.20;;;4.93;;
24485;SDS011;13449;49.374;8.584;2022-11-18T16:23:41;5.95;;;2.45;;
24485;SDS011;13449;49.374;8.584;2022-11-18T16:26:07;5.05;;;2.10;;
24485;SDS011;13449;49.374;8.584;2022-11-18T16:28:34;8.07;;;2.30;;
24485;SDS011;13449;49.374;8.584;2022-11-18T16:31:00;13.45;;;2.25;;
24485;SDS011;13449;49.374;8.584;2022-11-18T16:33:45;5.90;;;3.40;;
24485;SDS011;13449;49.374;8.584;2022-11-18T16:36:12;14.68;;;6.82;;
24485;SDS011;13449;49.374;8.584;2022-11-18T16:38:38;23.30;;;11.43;;
24485;SDS011;13449;49.374;8.584;2022-11-18T16:41:05;26.02;;;15.18;;
24485;SDS011;13449;49.374;8.584;2022-11-18T16:43:52;14.57;;;9.57;;
24485;SDS011;13449;49.374;8.584;2022-11-18T16:46:18;16.17;;;8.75;;
24485;SDS011;13449;49.374;8.584;2022-11-18T16:48:45;8.52;;;5.63;;
24485;SDS011;13449;49.374;8.584;2022-11-18T16:53:42;18.15;;;3.42;;
24485;SDS011;13449;49.374;8.584;2022-11-18T16:56:08;6.70;;;3.28;;
24485;SDS011;13449;49.374;8.584;2022-11-18T16:58:35;10.90;;;6.47;;
24485;SDS011;13449;49.374;8.584;2022-11-18T17:01:08;17.25;;;6.82;;
24485;SDS011;13449;49.374;8.584;2022-11-18T17:03:48;19.90;;;10.77;;
24485;SDS011;13449;49.374;8.584;2022-11-18T17:06:16;25.35;;;10.00;;
24485;SDS011;13449;49.374;8.584;2022-11-18T17:08:43;29.83;;;12.30;;
24485;SDS011;13449;49.374;8.584;2022-11-18T17:11:09;35.90;;;15.30;;
24485;SDS011;13449;49.374;8.584;2022-11-18T17:13:39;29.05;;;10.88;;
24485;SDS011;13449;49.374;8.584;2022-11-18T17:16:10;43.83;;;12.80;;
24485;SDS011;13449;49.374;8.584;2022-11-18T17:18:38;28.50;;;10.82;;
24485;SDS011;13449;49.374;8.584;2022-11-18T17:21:05;17.27;;;7.97;;
24485;SDS011;13449;49.374;8.584;2022-11-18T17:26:04;12.60;;;6.68;;
24485;SDS011;13449;49.374;8.584;2022-11-18T17:28:31;18.55;;;7.75;;
24485;SDS011;13449;49.374;8.584;2022-11-18T17:31:09;29.27;;;10.50;;
24485;SDS011;13449;49.374;8.584;2022-11-18T17:33:37;19.60;;;8.93;;
24485;SDS011;13449;49.374;8.584;2022-11-18T17:36:05;22.63;;;7.97;;
24485;SDS011;13449;49.374;8.584;2022-11-18T17:38:35;18.92;;;6.90;;